Time;durP1;ratioP1;P1;durP2;ratioP2;P2;SDS_P1;SDS_P2;PMS_P1;PMS_P2;Temp;Humidity;BMP_temperature;BMP_pressure;BME280_temperature;BME280_humidity;BME280_pressure;Samples;Min_cycle;Max_cycle;Signal;HPM_P1;HPM_P2
2022/06/27 00:00:07;;;;;;;5.47;4.97;;;;;;;;;;4958967;28;20429;-93
2022/06/27 00:02:33;;;;;;;4.63;4.53;;;;;;;;;;4940783;29;20431;-93
2022/06/27 00:04:59;;;;;;;5.73;5.43;;;;;;;;;;4945124;29;20497;-93
2022/06/27 00:07:25;;;;;;;4.50;4.40;;;;;;;;;;4962048;28;20442;-94
2022/06/27 00:09:51;;;;;;;4.90;4.63;;;;;;;;;;4956534;29;20517;-95
2022/06/27 00:12:17;;;;;;;4.67;4.57;;;;;;;;;;4958686;28;20516;-94
2022/06/27 00:14:43;;;;;;;4.83;4.70;;;;;;;;;;4960541;28;20516;-94
2022/06/27 00:17:09;;;;;;;5.37;5.00;;;;;;;;;;4946115;28;20438;-95
2022/06/27 00:19:35;;;;;;;5.10;5.00;;;;;;;;;;4969995;29;20426;-93
2022/06/27 00:22:01;;;;;;;4.23;4.20;;;;;;;;;;4952611;29;20466;-93
2022/06/27 00:24:27;;;;;;;4.93;4.60;;;;;;;;;;4965000;28;20774;-94
2022/06/27 00:26:53;;;;;;;5.63;5.23;;;;;;;;;;4953960;28;20453;-93
2022/06/27 00:29:19;;;;;;;5.73;5.47;;;;;;;;;;4959659;29;20510;-93
2022/06/27 00:31:45;;;;;;;5.60;5.40;;;;;;;;;;4952647;28;20545;-93
2022/06/27 00:34:11;;;;;;;5.33;5.03;;;;;;;;;;4969074;28;20426;-92
2022/06/27 00:36:37;;;;;;;5.13;4.87;;;;;;;;;;4954309;29;20834;-93
2022/06/27 00:39:03;;;;;;;5.33;5.03;;;;;;;;;;4956058;29;20462;-95
2022/06/27 00:41:29;;;;;;;5.90;5.60;;;;;;;;;;4975032;28;20526;-92
2022/06/27 00:43:55;;;;;;;5.07;4.97;;;;;;;;;;4945246;29;20458;-93
2022/06/27 00:46:21;;;;;;;5.70;5.50;;;;;;;;;;4947322;29;20450;-94
2022/06/27 00:48:47;;;;;;;5.13;5.03;;;;;;;;;;4960920;28;20433;-92
2022/06/27 00:51:14;;;;;;;5.67;5.47;;;;;;;;;;4960033;28;20473;-93
2022/06/27 00:53:40;;;;;;;4.50;4.40;;;;;;;;;;4950886;28;20436;-93
2022/06/27 00:56:06;;;;;;;5.30;5.20;;;;;;;;;;4956355;29;20442;-93
2022/06/27 00:58:32;;;;;;;4.63;4.47;;;;;;;;;;4949388;29;20439;-93
2022/06/27 01:00:58;;;;;;;9.83;5.37;;;;;;;;;;4951109;29;20512;-95
2022/06/27 01:03:24;;;;;;;4.70;4.40;;;;;;;;;;4939932;29;20410;-92
2022/06/27 01:05:53;;;;;;;5.03;4.80;;;;;;;;;;4957118;28;20438;-93
2022/06/27 01:08:20;;;;;;;5.40;5.20;;;;;;;;;;4935318;29;20510;-93
2022/06/27 01:10:46;;;;;;;5.60;5.40;;;;;;;;;;4955786;28;20429;-93
2022/06/27 01:13:13;;;;;;;5.03;4.83;;;;;;;;;;4976480;28;20194;-92
2022/06/27 01:15:39;;;;;;;4.43;4.40;;;;;;;;;;4955185;28;20453;-93
2022/06/27 01:18:05;;;;;;;5.80;5.10;;;;;;;;;;4943638;28;20429;-93
2022/06/27 01:20:31;;;;;;;5.70;5.50;;;;;;;;;;4966255;28;20462;-93
2022/06/27 01:22:57;;;;;;;5.57;5.37;;;;;;;;;;4962117;28;20418;-93
2022/06/27 01:25:25;;;;;;;5.97;5.67;;;;;;;;;;4970170;28;20471;-95
2022/06/27 01:27:51;;;;;;;4.90;4.80;;;;;;;;;;4973259;28;20419;-94
2022/06/27 01:30:17;;;;;;;5.37;4.97;;;;;;;;;;4961586;29;20461;-93
2022/06/27 01:32:43;;;;;;;4.90;4.73;;;;;;;;;;4962303;28;20467;-94
2022/06/27 01:35:10;;;;;;;5.03;4.83;;;;;;;;;;4957870;28;20433;-93
2022/06/27 01:37:36;;;;;;;5.10;4.83;;;;;;;;;;4932781;29;21128;-88
2022/06/27 01:40:02;;;;;;;5.33;5.20;;;;;;;;;;4936001;29;20430;-89
2022/06/27 01:42:28;;;;;;;6.57;5.80;;;;;;;;;;4933728;29;20446;-88
2022/06/27 01:44:55;;;;;;;5.30;5.10;;;;;;;;;;4934029;29;20485;-88
2022/06/27 01:47:21;;;;;;;5.10;5.00;;;;;;;;;;4930060;29;20487;-88
2022/06/27 01:49:47;;;;;;;4.80;4.70;;;;;;;;;;4938682;29;20979;-87
2022/06/27 01:52:14;;;;;;;4.83;4.63;;;;;;;;;;4952925;28;20536;-88
2022/06/27 01:54:40;;;;;;;5.20;5.00;;;;;;;;;;4933728;29;20470;-88
2022/06/27 01:57:08;;;;;;;7.33;5.60;;;;;;;;;;4936469;29;20434;-89
2022/06/27 01:59:34;;;;;;;6.33;5.73;;;;;;;;;;4947499;29;20429;-88
2022/06/27 02:02:00;;;;;;;5.63;5.43;;;;;;;;;;4951637;28;20430;-88
2022/06/27 02:04:27;;;;;;;6.67;5.70;;;;;;;;;;4946487;29;20434;-88
2022/06/27 02:06:53;;;;;;;5.33;5.13;;;;;;;;;;4939797;29;20536;-88
2022/06/27 02:09:19;;;;;;;5.23;5.03;;;;;;;;;;4937888;29;20470;-88
2022/06/27 02:11:46;;;;;;;6.10;5.80;;;;;;;;;;4935986;29;20472;-88
2022/06/27 02:14:13;;;;;;;5.90;5.53;;;;;;;;;;4944246;29;20426;-88
2022/06/27 02:16:41;;;;;;;6.63;6.30;;;;;;;;;;4942410;29;20479;-88
2022/06/27 02:19:07;;;;;;;6.27;5.90;;;;;;;;;;4942543;29;20537;-88
2022/06/27 02:21:33;;;;;;;5.87;5.67;;;;;;;;;;4944836;28;20541;-88
2022/06/27 02:23:59;;;;;;;5.40;5.27;;;;;;;;;;4936714;29;20430;-89
2022/06/27 02:26:28;;;;;;;5.70;5.50;;;;;;;;;;4935549;29;20489;-89
2022/06/27 02:28:55;;;;;;;5.93;5.50;;;;;;;;;;4954195;28;20903;-88
2022/06/27 02:31:21;;;;;;;5.10;5.00;;;;;;;;;;4951494;28;20979;-89
2022/06/27 02:33:48;;;;;;;5.07;5.03;;;;;;;;;;4936128;29;20442;-89
2022/06/27 02:36:20;;;;;;;5.90;5.60;;;;;;;;;;4943639;28;20458;-88
2022/06/27 02:38:48;;;;;;;5.07;4.87;;;;;;;;;;4939796;29;20454;-89
2022/06/27 02:41:15;;;;;;;6.13;5.80;;;;;;;;;;4940599;29;20441;-90
2022/06/27 02:43:45;;;;;;;5.70;5.33;;;;;;;;;;4937773;29;20422;-89
2022/06/27 02:46:11;;;;;;;6.07;5.73;;;;;;;;;;4952781;28;20437;-89
2022/06/27 02:48:38;;;;;;;5.47;5.37;;;;;;;;;;4943343;29;20418;-89
2022/06/27 02:51:15;;;;;;;6.00;5.53;;;;;;;;;;4947782;28;20448;-88
2022/06/27 02:53:45;;;;;;;5.53;5.30;;;;;;;;;;4936540;29;20792;-88
2022/06/27 02:56:13;;;;;;;5.60;5.40;;;;;;;;;;4941738;29;20433;-87
2022/06/27 02:58:39;;;;;;;6.13;5.90;;;;;;;;;;4954223;29;20938;-88
2022/06/27 03:01:05;;;;;;;6.70;6.30;;;;;;;;;;4935987;29;20448;-88
2022/06/27 03:03:32;;;;;;;7.20;6.90;;;;;;;;;;4954580;28;20414;-88
2022/06/27 03:06:03;;;;;;;7.50;7.20;;;;;;;;;;4935186;28;20437;-89
2022/06/27 03:08:43;;;;;;;9.10;8.30;;;;;;;;;;4953954;29;20509;-87
2022/06/27 03:11:13;;;;;;;9.27;8.70;;;;;;;;;;4932121;29;21013;-89
2022/06/27 03:13:39;;;;;;;13.77;8.90;;;;;;;;;;4931555;29;20441;-89
2022/06/27 03:16:05;;;;;;;10.03;9.23;;;;;;;;;;4943368;29;20839;-89
2022/06/27 03:18:31;;;;;;;12.03;9.63;;;;;;;;;;4936871;29;20439;-88
2022/06/27 03:20:57;;;;;;;9.50;8.80;;;;;;;;;;4934795;28;21028;-88
2022/06/27 03:23:23;;;;;;;9.23;8.53;;;;;;;;;;4939062;28;20434;-88
2022/06/27 03:25:49;;;;;;;10.17;9.50;;;;;;;;;;4952298;28;20485;-88
2022/06/27 03:28:15;;;;;;;9.97;9.33;;;;;;;;;;4933795;29;20470;-88
2022/06/27 03:30:41;;;;;;;10.00;9.30;;;;;;;;;;4957584;28;20426;-88
2022/06/27 03:33:07;;;;;;;10.00;9.33;;;;;;;;;;4933100;29;20477;-88
2022/06/27 03:35:33;;;;;;;10.20;9.37;;;;;;;;;;4947123;29;20426;-88
2022/06/27 03:37:59;;;;;;;11.03;10.27;;;;;;;;;;4934622;29;20985;-88
2022/06/27 03:40:25;;;;;;;11.37;10.50;;;;;;;;;;4944613;29;20466;-88
2022/06/27 03:42:51;;;;;;;10.07;9.23;;;;;;;;;;4932456;29;20451;-88
2022/06/27 03:45:18;;;;;;;12.07;11.17;;;;;;;;;;4938608;29;20442;-88
2022/06/27 03:47:49;;;;;;;9.90;9.30;;;;;;;;;;4933643;29;20447;-88
2022/06/27 03:50:15;;;;;;;11.13;10.33;;;;;;;;;;4935750;29;20537;-88
2022/06/27 03:52:42;;;;;;;11.43;10.63;;;;;;;;;;4935841;29;20481;-88
2022/06/27 03:55:09;;;;;;;11.33;10.43;;;;;;;;;;4940093;29;20545;-89
2022/06/27 03:57:38;;;;;;;12.93;11.70;;;;;;;;;;4934646;29;20451;-87
2022/06/27 04:00:05;;;;;;;12.63;11.60;;;;;;;;;;4936228;29;20448;-88
2022/06/27 04:02:31;;;;;;;12.00;11.00;;;;;;;;;;4935225;29;20438;-88
2022/06/27 04:04:57;;;;;;;11.17;10.30;;;;;;;;;;4934338;29;20954;-88
2022/06/27 04:07:23;;;;;;;12.50;11.40;;;;;;;;;;4956295;28;20521;-88
2022/06/27 04:09:49;;;;;;;12.00;11.00;;;;;;;;;;4944576;29;20426;-89
2022/06/27 04:12:15;;;;;;;12.27;11.40;;;;;;;;;;4933439;29;20541;-89
2022/06/27 04:14:41;;;;;;;12.40;11.20;;;;;;;;;;4935407;29;20590;-88
2022/06/27 04:17:07;;;;;;;13.70;12.60;;;;;;;;;;4943679;29;20427;-88
2022/06/27 04:19:33;;;;;;;12.67;11.77;;;;;;;;;;4931751;29;20435;-87
2022/06/27 04:21:59;;;;;;;14.30;13.17;;;;;;;;;;4939213;29;20478;-89
2022/06/27 04:24:25;;;;;;;15.43;13.80;;;;;;;;;;4940019;29;20437;-88
2022/06/27 04:26:51;;;;;;;16.23;14.13;;;;;;;;;;4945720;29;20466;-87
2022/06/27 04:29:17;;;;;;;15.00;13.67;;;;;;;;;;4938934;29;20438;-87
2022/06/27 04:31:43;;;;;;;13.90;12.53;;;;;;;;;;4944147;29;20988;-88
2022/06/27 04:34:12;;;;;;;15.23;13.87;;;;;;;;;;4936787;29;20476;-89
2022/06/27 04:36:38;;;;;;;15.90;14.33;;;;;;;;;;4945289;28;20433;-88
2022/06/27 04:39:06;;;;;;;16.23;14.60;;;;;;;;;;4933918;29;20462;-88
2022/06/27 04:41:32;;;;;;;16.03;14.60;;;;;;;;;;4939925;29;20501;-89
2022/06/27 04:43:58;;;;;;;16.60;14.80;;;;;;;;;;4942423;29;20426;-89
2022/06/27 04:46:24;;;;;;;18.80;17.00;;;;;;;;;;4942740;29;20430;-88
2022/06/27 04:48:51;;;;;;;17.67;15.93;;;;;;;;;;4936708;29;20430;-87
2022/06/27 04:51:18;;;;;;;17.40;15.87;;;;;;;;;;4961181;28;20438;-90
2022/06/27 04:53:45;;;;;;;16.30;14.80;;;;;;;;;;4940494;29;20471;-89
2022/06/27 04:56:11;;;;;;;17.30;15.83;;;;;;;;;;4941188;29;20971;-88
2022/06/27 04:58:37;;;;;;;17.37;15.37;;;;;;;;;;4953664;29;20434;-89
2022/06/27 05:01:03;;;;;;;17.03;15.60;;;;;;;;;;4937486;29;20481;-89
2022/06/27 05:03:30;;;;;;;17.33;15.90;;;;;;;;;;4936774;29;20921;-89
2022/06/27 05:05:56;;;;;;;16.00;14.50;;;;;;;;;;4947568;29;20442;-89
2022/06/27 05:08:22;;;;;;;16.10;14.80;;;;;;;;;;4940954;29;20450;-89
2022/06/27 05:10:48;;;;;;;16.23;14.83;;;;;;;;;;4946516;29;20426;-88
2022/06/27 05:13:14;;;;;;;16.10;14.67;;;;;;;;;;4957163;28;20478;-89
2022/06/27 05:15:40;;;;;;;15.63;14.43;;;;;;;;;;4937471;29;20441;-87
2022/06/27 05:18:06;;;;;;;17.30;15.50;;;;;;;;;;4958674;28;20446;-89
2022/06/27 05:20:32;;;;;;;17.10;15.67;;;;;;;;;;4951881;29;20513;-89
2022/06/27 05:23:00;;;;;;;15.67;14.30;;;;;;;;;;4270851;28;10000683;-88
2022/06/27 05:25:26;;;;;;;14.53;13.43;;;;;;;;;;4939399;29;20863;-89
2022/06/27 05:27:54;;;;;;;14.67;13.50;;;;;;;;;;4947429;28;21126;-88
2022/06/27 05:30:22;;;;;;;15.10;13.70;;;;;;;;;;4970055;28;20484;-89
2022/06/27 05:32:48;;;;;;;14.93;13.67;;;;;;;;;;4954319;28;20540;-88
2022/06/27 05:35:14;;;;;;;15.33;14.03;;;;;;;;;;4931757;29;20423;-87
2022/06/27 05:37:44;;;;;;;15.87;14.37;;;;;;;;;;4934604;29;20446;-89
2022/06/27 05:40:10;;;;;;;15.23;13.90;;;;;;;;;;4936282;29;21204;-89
2022/06/27 05:42:36;;;;;;;15.50;14.03;;;;;;;;;;4932264;28;20442;-89
2022/06/27 05:45:03;;;;;;;15.67;14.33;;;;;;;;;;4955349;29;20438;-87
2022/06/27 05:47:30;;;;;;;14.73;13.43;;;;;;;;;;4960368;28;20534;-88
2022/06/27 05:49:58;;;;;;;14.93;13.47;;;;;;;;;;4943650;29;20768;-89
2022/06/27 05:52:25;;;;;;;15.97;14.50;;;;;;;;;;4940908;29;20474;-87
2022/06/27 05:54:52;;;;;;;15.37;14.10;;;;;;;;;;4929485;29;21027;-87
2022/06/27 05:57:18;;;;;;;14.00;13.00;;;;;;;;;;4944789;28;20882;-87
2022/06/27 05:59:44;;;;;;;14.20;13.10;;;;;;;;;;4934225;28;20426;-87
2022/06/27 06:02:10;;;;;;;16.30;14.80;;;;;;;;;;4934786;28;20465;-87
2022/06/27 06:04:36;;;;;;;14.47;13.47;;;;;;;;;;4933764;29;20522;-88
2022/06/27 06:07:03;;;;;;;14.50;13.40;;;;;;;;;;4935242;29;20497;-88
2022/06/27 06:09:32;;;;;;;15.53;14.00;;;;;;;;;;4947769;29;20437;-87
2022/06/27 06:11:58;;;;;;;15.07;13.70;;;;;;;;;;4934550;29;20485;-87
2022/06/27 06:14:26;;;;;;;13.87;12.77;;;;;;;;;;4931211;29;20444;-87
2022/06/27 06:16:52;;;;;;;14.90;13.70;;;;;;;;;;4936341;29;20438;-87
2022/06/27 06:19:19;;;;;;;16.33;14.60;;;;;;;;;;4927621;29;20441;-88
2022/06/27 06:21:45;;;;;;;14.60;13.30;;;;;;;;;;4931767;28;20449;-86
2022/06/27 06:24:11;;;;;;;15.47;14.20;;;;;;;;;;4935042;29;20542;-89
2022/06/27 06:26:37;;;;;;;14.33;13.13;;;;;;;;;;4929366;28;20478;-89
2022/06/27 06:29:14;;;;;;;14.47;13.20;;;;;;;;;;4930827;29;20430;-88
2022/06/27 06:31:44;;;;;;;14.30;13.17;;;;;;;;;;4933132;28;20510;-88
2022/06/27 06:34:10;;;;;;;15.33;14.13;;;;;;;;;;4931569;29;20825;-88
2022/06/27 06:36:38;;;;;;;14.27;13.17;;;;;;;;;;4938319;28;20505;-86
2022/06/27 06:39:04;;;;;;;13.80;12.73;;;;;;;;;;4928149;29;20518;-89
2022/06/27 06:41:31;;;;;;;13.63;12.60;;;;;;;;;;4931317;28;20497;-87
2022/06/27 06:43:59;;;;;;;13.40;12.27;;;;;;;;;;4921111;29;20423;-90
2022/06/27 06:46:25;;;;;;;13.60;12.60;;;;;;;;;;4949324;28;20440;-89
2022/06/27 06:48:58;;;;;;;11.90;10.90;;;;;;;;;;4949106;29;20414;-90
2022/06/27 06:51:24;;;;;;;13.77;12.67;;;;;;;;;;4930894;28;21406;-90
2022/06/27 06:53:50;;;;;;;13.57;12.37;;;;;;;;;;4952557;29;20449;-89
2022/06/27 06:56:16;;;;;;;12.50;11.70;;;;;;;;;;4934838;28;20495;-89
2022/06/27 06:58:42;;;;;;;14.17;12.87;;;;;;;;;;4935813;29;20842;-89
2022/06/27 07:01:11;;;;;;;13.30;12.40;;;;;;;;;;4941606;28;20435;-89
2022/06/27 07:03:38;;;;;;;13.27;12.40;;;;;;;;;;4951400;28;20449;-89
2022/06/27 07:06:05;;;;;;;13.13;11.90;;;;;;;;;;4936365;29;20450;-89
2022/06/27 07:08:33;;;;;;;13.00;12.00;;;;;;;;;;4936024;29;20438;-89
2022/06/27 07:10:59;;;;;;;13.30;12.27;;;;;;;;;;4935768;28;20550;-90
2022/06/27 07:13:26;;;;;;;13.80;12.57;;;;;;;;;;4950124;28;20544;-89
2022/06/27 07:15:52;;;;;;;11.87;10.87;;;;;;;;;;4941795;29;20442;-89
2022/06/27 07:18:18;;;;;;;12.17;11.37;;;;;;;;;;4936802;29;20549;-88
2022/06/27 07:20:45;;;;;;;12.33;11.63;;;;;;;;;;4931381;29;20478;-89
2022/06/27 07:23:11;;;;;;;12.23;11.33;;;;;;;;;;4938065;28;20448;-89
2022/06/27 07:25:37;;;;;;;13.00;11.87;;;;;;;;;;4971546;28;20476;-87
2022/06/27 07:28:04;;;;;;;12.83;11.83;;;;;;;;;;4961289;28;21030;-85
2022/06/27 07:30:30;;;;;;;17.63;12.50;;;;;;;;;;4956647;28;20936;-87
2022/06/27 07:32:56;;;;;;;12.97;11.67;;;;;;;;;;4962921;28;20474;-89
2022/06/27 07:35:22;;;;;;;12.43;11.60;;;;;;;;;;4960190;28;20494;-88
2022/06/27 07:37:49;;;;;;;13.80;12.33;;;;;;;;;;4967715;28;20453;-89
2022/06/27 07:40:18;;;;;;;11.63;10.73;;;;;;;;;;4984408;28;20449;-89
2022/06/27 07:42:45;;;;;;;11.80;11.00;;;;;;;;;;4961861;28;20453;-86
2022/06/27 07:45:14;;;;;;;12.70;11.60;;;;;;;;;;4959420;28;20584;-86
2022/06/27 07:47:40;;;;;;;10.73;10.00;;;;;;;;;;4973957;28;20468;-85
2022/06/27 07:50:07;;;;;;;12.23;11.33;;;;;;;;;;4980738;28;21090;-86
2022/06/27 07:53:11;;;;;;;12.07;11.23;;;;;;;;;;4971840;28;20473;-85
2022/06/27 07:55:24;;;;;;;11.50;10.60;;;;;;;;;;4960072;28;20430;-85
2022/06/27 07:57:52;;;;;;;10.47;9.77;;;;;;;;;;4963632;28;20552;-85
2022/06/27 08:00:18;;;;;;;10.70;9.90;;;;;;;;;;4957904;28;20440;-85
2022/06/27 08:02:44;;;;;;;10.77;9.97;;;;;;;;;;4954477;28;20488;-89
2022/06/27 08:05:10;;;;;;;11.67;10.77;;;;;;;;;;4952745;28;20446;-88
2022/06/27 08:07:38;;;;;;;11.60;10.60;;;;;;;;;;4982754;28;20437;-84
2022/06/27 08:10:05;;;;;;;12.13;11.33;;;;;;;;;;4956332;28;20433;-87
2022/06/27 08:12:32;;;;;;;11.00;10.00;;;;;;;;;;4973925;28;20480;-88
2022/06/27 08:14:59;;;;;;;11.23;10.43;;;;;;;;;;4960295;28;20500;-87
2022/06/27 08:17:25;;;;;;;11.43;10.53;;;;;;;;;;4968484;28;20494;-88
2022/06/27 08:19:51;;;;;;;10.90;10.18;;;;;;;;;;4625937;28;9999914;-87
2022/06/27 08:22:17;;;;;;;10.93;10.03;;;;;;;;;;4966225;28;20265;-90
2022/06/27 08:24:44;;;;;;;10.20;9.47;;;;;;;;;;4974258;28;20616;-93
2022/06/27 08:27:12;;;;;;;11.77;10.87;;;;;;;;;;4971085;28;20439;-93
2022/06/27 08:29:41;;;;;;;12.23;11.17;;;;;;;;;;4969476;28;20465;-91
2022/06/27 08:32:07;;;;;;;11.37;10.57;;;;;;;;;;4978801;28;20464;-92
2022/06/27 08:34:33;;;;;;;11.47;10.67;;;;;;;;;;4964087;28;20505;-91
2022/06/27 08:37:09;;;;;;;11.60;10.77;;;;;;;;;;4975079;28;20443;-92
2022/06/27 08:39:44;;;;;;;12.70;11.60;;;;;;;;;;4970673;29;20437;-92
2022/06/27 08:42:17;;;;;;;12.10;11.03;;;;;;;;;;4966493;29;20433;-92
2022/06/27 08:44:44;;;;;;;11.60;10.60;;;;;;;;;;4969640;28;20464;-94
2022/06/27 08:47:11;;;;;;;11.50;10.70;;;;;;;;;;4987626;28;20443;-90
2022/06/27 08:49:39;;;;;;;12.37;11.57;;;;;;;;;;4991137;28;20779;-87
2022/06/27 08:52:06;;;;;;;12.80;11.80;;;;;;;;;;5135706;23;20651;-92
2022/06/27 08:54:32;;;;;;;13.10;12.20;;;;;;;;;;4990933;28;20440;-94
2022/06/27 08:57:01;;;;;;;12.03;11.13;;;;;;;;;;5011665;28;20433;-91
2022/06/27 08:59:28;;;;;;;12.37;11.60;;;;;;;;;;4996301;28;20497;-93
2022/06/27 09:01:54;;;;;;;11.77;10.97;;;;;;;;;;4644866;28;9999967;-93
2022/06/27 09:04:33;;;;;;;;;;;;;;;;;;;;;
2022/06/27 09:07:02;;;;;;;14.10;13.10;;;;;;;;;;4977915;28;20457;-91
2022/06/27 09:09:29;;;;;;;13.27;12.30;;;;;;;;;;4988058;28;20433;-90
2022/06/27 09:11:57;;;;;;;12.80;11.80;;;;;;;;;;4974393;28;21065;-91
2022/06/27 09:14:46;;;;;;;12.10;11.30;;;;;;;;;;4993107;28;20414;-91
2022/06/27 09:22:32;;;;;;;14.20;13.20;;;;;;;;;;4973798;22;20482;-91
2022/06/27 09:25:09;;;;;;;11.20;10.50;;;;;;;;;;5252382;22;20917;-91
2022/06/27 09:27:41;;;;;;;12.70;11.80;;;;;;;;;;5057115;22;20577;-93
2022/06/27 09:32:43;;;;;;;12.07;11.30;;;;;;;;;;5171310;22;20573;-91
2022/06/27 09:45:33;;;;;;;15.20;14.00;;;;;;;;;;3172171;22;20506;-88
2022/06/27 09:48:04;;;;;;;15.53;14.30;;;;;;;;;;4984379;28;20447;-88
2022/06/27 09:50:35;;;;;;;15.10;14.00;;;;;;;;;;4980819;28;20451;-91
2022/06/27 09:53:01;;;;;;;15.63;14.50;;;;;;;;;;4978156;28;20563;-91
2022/06/27 09:55:29;;;;;;;16.30;15.00;;;;;;;;;;4978965;28;20441;-91
2022/06/27 09:57:56;;;;;;;16.97;15.57;;;;;;;;;;5003996;28;20447;-91
2022/06/27 10:00:23;;;;;;;16.13;14.93;;;;;;;;;;4985620;28;20441;-93
2022/06/27 10:02:51;;;;;;;17.37;16.07;;;;;;;;;;4989186;28;20457;-91
2022/06/27 10:05:17;;;;;;;15.47;14.37;;;;;;;;;;4991185;28;20795;-92
2022/06/27 10:08:05;;;;;;;16.43;15.23;;;;;;;;;;5001005;28;20426;-90
2022/06/27 10:10:31;;;;;;;17.87;16.47;;;;;;;;;;4987855;28;20478;-90
2022/06/27 10:13:03;;;;;;;16.97;15.67;;;;;;;;;;4986793;28;20484;-93
2022/06/27 10:15:30;;;;;;;17.70;16.40;;;;;;;;;;4984682;28;20436;-92
2022/06/27 10:17:57;;;;;;;18.00;16.50;;;;;;;;;;4634722;28;10000167;-91
2022/06/27 10:20:27;;;;;;;19.30;17.53;;;;;;;;;;4978722;28;20185;-92
2022/06/27 10:23:13;;;;;;;19.73;18.00;;;;;;;;;;4985228;28;20394;-92
2022/06/27 10:25:41;;;;;;;20.45;18.85;;;;;;;;;;5009610;28;20938;-92
2022/06/27 10:28:12;;;;;;;21.00;19.50;;;;;;;;;;4985246;28;20407;-90
2022/06/27 10:30:42;;;;;;;19.07;17.57;;;;;;;;;;5006671;28;20627;-91
2022/06/27 10:33:26;;;;;;;17.50;16.20;;;;;;;;;;5008495;28;20485;-91
2022/06/27 10:38:31;;;;;;;17.60;16.20;;;;;;;;;;5020047;28;20439;-89
2022/06/27 10:40:57;;;;;;;19.00;17.57;;;;;;;;;;4993892;28;20435;-89
2022/06/27 10:43:45;;;;;;;45.20;40.90;;;;;;;;;;4999237;28;20432;-91
2022/06/27 10:46:14;;;;;;;18.53;17.13;;;;;;;;;;4993672;28;20550;-91
2022/06/27 10:48:41;;;;;;;18.67;17.17;;;;;;;;;;4987803;28;20480;-91
2022/06/27 10:51:22;;;;;;;19.60;17.80;;;;;;;;;;4976450;28;20502;-91
2022/06/27 10:53:58;;;;;;;18.90;17.43;;;;;;;;;;4986673;28;20475;-91
2022/06/27 10:56:30;;;;;;;17.13;15.63;;;;;;;;;;5002117;28;20744;-93
2022/06/27 10:58:57;;;;;;;19.47;17.97;;;;;;;;;;4980740;28;20465;-90
2022/06/27 11:01:23;;;;;;;18.63;17.03;;;;;;;;;;4978773;28;20442;-90
2022/06/27 11:03:52;;;;;;;19.97;18.43;;;;;;;;;;4999694;28;20487;-90
2022/06/27 11:06:21;;;;;;;19.17;17.77;;;;;;;;;;4997670;28;20459;-91
2022/06/27 11:08:49;;;;;;;19.77;17.87;;;;;;;;;;4986492;28;20433;-90
2022/06/27 11:11:16;;;;;;;20.63;18.93;;;;;;;;;;5001797;28;20440;-91
2022/06/27 11:13:43;;;;;;;21.53;19.40;;;;;;;;;;4979964;28;20446;-91
2022/06/27 11:16:10;;;;;;;22.63;20.73;;;;;;;;;;4985286;28;20435;-90
2022/06/27 11:18:41;;;;;;;22.60;20.50;;;;;;;;;;4989705;28;20436;-92
2022/06/27 11:21:07;;;;;;;21.37;19.57;;;;;;;;;;4995892;28;20544;-91
2022/06/27 11:23:59;;;;;;;20.37;18.67;;;;;;;;;;4999237;28;20647;-93
2022/06/27 11:26:56;;;;;;;20.93;19.10;;;;;;;;;;4966966;28;20461;-90
2022/06/27 11:32:13;;;;;;;19.67;17.73;;;;;;;;;;4974504;28;20876;-91
2022/06/27 11:34:41;;;;;;;19.07;17.60;;;;;;;;;;4968138;28;20516;-92
2022/06/27 11:37:11;;;;;;;20.60;19.10;;;;;;;;;;5002957;28;20428;-92
2022/06/27 11:39:40;;;;;;;22.57;20.87;;;;;;;;;;4962904;28;20476;-93
2022/06/27 11:42:10;;;;;;;21.50;20.00;;;;;;;;;;4986005;28;20446;-92
2022/06/27 11:44:37;;;;;;;22.73;21.13;;;;;;;;;;4977182;28;20445;-91
2022/06/27 11:47:07;;;;;;;24.77;22.67;;;;;;;;;;5004991;28;20413;-92
2022/06/27 11:49:37;;;;;;;25.27;23.20;;;;;;;;;;4983437;28;20429;-92
2022/06/27 11:52:05;;;;;;;26.23;24.00;;;;;;;;;;4989128;28;20460;-92
2022/06/27 11:54:45;;;;;;;25.27;23.03;;;;;;;;;;4966648;28;21025;-93
2022/06/27 11:57:34;;;;;;;23.83;21.80;;;;;;;;;;4999553;28;20440;-91
2022/06/27 12:00:06;;;;;;;21.60;19.80;;;;;;;;;;4988202;28;20512;-90
2022/06/27 12:02:34;;;;;;;21.90;19.90;;;;;;;;;;4974299;28;20426;-91
2022/06/27 12:05:11;;;;;;;19.60;18.23;;;;;;;;;;4991770;28;20443;-92
2022/06/27 12:07:52;;;;;;;20.37;18.40;;;;;;;;;;4982023;28;20870;-92
2022/06/27 12:10:35;;;;;;;19.63;18.07;;;;;;;;;;4986947;28;20433;-92
2022/06/27 12:13:02;;;;;;;17.27;15.67;;;;;;;;;;4995099;28;20491;-92
2022/06/27 12:15:34;;;;;;;16.33;15.23;;;;;;;;;;4985262;28;20433;-91
2022/06/27 12:18:05;;;;;;;16.63;15.33;;;;;;;;;;4984366;28;20488;-93
2022/06/27 12:20:32;;;;;;;15.47;14.30;;;;;;;;;;4979771;28;20479;-92
2022/06/27 12:23:01;;;;;;;15.30;13.93;;;;;;;;;;4990451;28;20499;-89
2022/06/27 12:25:28;;;;;;;15.93;14.80;;;;;;;;;;4963746;28;20482;-91
2022/06/27 12:27:54;;;;;;;16.43;15.10;;;;;;;;;;4979997;28;20913;-90
2022/06/27 12:30:23;;;;;;;15.27;14.17;;;;;;;;;;4989274;28;20417;-90
2022/06/27 12:32:49;;;;;;;16.90;15.60;;;;;;;;;;4992132;28;20946;-91
2022/06/27 12:35:18;;;;;;;16.70;15.50;;;;;;;;;;4987630;28;20432;-91
2022/06/27 12:37:45;;;;;;;18.37;16.77;;;;;;;;;;4989316;28;20496;-89
2022/06/27 12:40:11;;;;;;;18.47;17.07;;;;;;;;;;4992043;28;20487;-90
2022/06/27 12:42:37;;;;;;;17.73;16.50;;;;;;;;;;4280855;28;10000743;-91
2022/06/27 12:45:03;;;;;;;16.63;15.67;;;;;;;;;;4971411;28;20507;-90
2022/06/27 12:47:29;;;;;;;19.40;17.90;;;;;;;;;;4965639;28;20418;-90
2022/06/27 12:49:55;;;;;;;20.43;18.97;;;;;;;;;;4971590;28;20452;-91
2022/06/27 12:52:22;;;;;;;20.63;19.23;;;;;;;;;;4971436;28;20473;-90
2022/06/27 12:54:47;;;;;;;17.63;16.20;;;;;;;;;;4968853;28;20509;-89
2022/06/27 12:57:14;;;;;;;18.47;17.17;;;;;;;;;;4973405;28;20600;-90
2022/06/27 12:59:42;;;;;;;18.40;16.70;;;;;;;;;;4961548;28;20487;-90
2022/06/27 13:02:08;;;;;;;22.43;20.67;;;;;;;;;;4966942;28;20954;-89
2022/06/27 13:04:35;;;;;;;19.80;18.20;;;;;;;;;;4968552;28;20485;-91
2022/06/27 13:07:01;;;;;;;18.00;16.30;;;;;;;;;;4972889;28;20430;-90
2022/06/27 13:09:27;;;;;;;19.17;17.57;;;;;;;;;;4966444;28;20468;-90
2022/06/27 13:11:53;;;;;;;17.77;16.27;;;;;;;;;;4972616;28;20966;-92
2022/06/27 13:14:22;;;;;;;18.50;17.00;;;;;;;;;;4973754;28;20461;-91
2022/06/27 13:16:49;;;;;;;19.43;17.93;;;;;;;;;;4983200;28;20441;-92
2022/06/27 13:19:18;;;;;;;18.63;16.50;;;;;;;;;;4971118;28;20444;-91
2022/06/27 13:21:44;;;;;;;16.80;15.60;;;;;;;;;;4976340;28;20448;-92
2022/06/27 13:24:10;;;;;;;17.27;16.07;;;;;;;;;;4970748;28;20448;-92
2022/06/27 13:26:36;;;;;;;18.77;17.30;;;;;;;;;;4988918;28;20845;-93
2022/06/27 13:29:05;;;;;;;17.40;16.30;;;;;;;;;;4969742;28;20432;-88
2022/06/27 13:31:31;;;;;;;18.97;17.60;;;;;;;;;;4977937;28;20437;-92
2022/06/27 13:33:57;;;;;;;17.90;16.70;;;;;;;;;;4982404;28;20489;-91
2022/06/27 13:36:24;;;;;;;17.80;16.70;;;;;;;;;;4972736;28;20488;-92
2022/06/27 13:38:52;;;;;;;18.47;17.27;;;;;;;;;;4992854;28;20448;-92
2022/06/27 13:41:18;;;;;;;17.57;16.47;;;;;;;;;;4984349;28;20476;-90
2022/06/27 13:43:45;;;;;;;18.63;17.33;;;;;;;;;;4979714;28;20995;-94
2022/06/27 13:46:11;;;;;;;18.27;17.23;;;;;;;;;;4976100;28;20481;-93
2022/06/27 13:48:37;;;;;;;16.90;15.80;;;;;;;;;;4987069;28;20588;-92
2022/06/27 13:51:04;;;;;;;15.80;14.70;;;;;;;;;;4968717;28;20462;-93
2022/06/27 13:53:31;;;;;;;16.50;15.60;;;;;;;;;;4983411;28;20478;-94
2022/06/27 13:55:57;;;;;;;16.13;14.77;;;;;;;;;;4994561;28;20500;-90
2022/06/27 13:58:23;;;;;;;16.13;15.23;;;;;;;;;;4994372;28;20571;-91
2022/06/27 14:00:50;;;;;;;16.93;15.73;;;;;;;;;;4997629;28;20416;-91
2022/06/27 14:03:19;;;;;;;14.77;13.90;;;;;;;;;;5004888;28;20479;-93
2022/06/27 14:05:45;;;;;;;20.63;18.80;;;;;;;;;;5006619;28;20468;-91
2022/06/27 14:08:11;;;;;;;15.00;13.87;;;;;;;;;;5002264;28;20429;-91
2022/06/27 14:10:56;;;;;;;14.03;13.23;;;;;;;;;;5001395;28;20440;-92
2022/06/27 14:13:25;;;;;;;14.53;13.60;;;;;;;;;;4972680;28;20485;-92
2022/06/27 14:15:52;;;;;;;12.73;12.03;;;;;;;;;;4979655;28;20421;-90
2022/06/27 14:18:18;;;;;;;12.30;11.60;;;;;;;;;;4986486;28;20440;-92
2022/06/27 14:20:44;;;;;;;11.93;11.30;;;;;;;;;;4999245;28;20430;-91
2022/06/27 14:23:10;;;;;;;10.57;10.00;;;;;;;;;;4996600;28;20412;-90
2022/06/27 14:25:36;;;;;;;9.33;8.93;;;;;;;;;;4978464;28;21145;-93
2022/06/27 14:28:02;;;;;;;7.80;7.47;;;;;;;;;;4984324;28;20432;-91
2022/06/27 14:30:31;;;;;;;6.60;6.47;;;;;;;;;;4991078;28;20418;-93
2022/06/27 14:33:00;;;;;;;5.03;4.93;;;;;;;;;;4984064;28;20495;-92
2022/06/27 14:35:29;;;;;;;5.20;4.80;;;;;;;;;;4962339;28;21014;-93
2022/06/27 14:37:58;;;;;;;4.83;4.70;;;;;;;;;;4987639;28;21061;-92
2022/06/27 14:40:25;;;;;;;4.50;4.40;;;;;;;;;;4989092;28;20975;-92
2022/06/27 14:42:51;;;;;;;4.43;4.33;;;;;;;;;;4976528;28;20446;-90
2022/06/27 14:45:24;;;;;;;3.70;3.60;;;;;;;;;;4987695;28;20525;-94
2022/06/27 14:47:50;;;;;;;3.73;3.63;;;;;;;;;;4973816;28;20429;-93
2022/06/27 14:50:16;;;;;;;4.00;3.90;;;;;;;;;;4965065;28;20533;-92
2022/06/27 14:52:42;;;;;;;3.80;3.70;;;;;;;;;;4979120;28;20498;-92